createdAt,value
2022-11-22T00:00:39.737Z,9.88
2022-11-22T00:03:06.885Z,11.80
2022-11-22T00:05:34.217Z,10.75
2022-11-22T00:08:01.038Z,10.13
2022-11-22T00:10:27.986Z,10.10
2022-11-22T00:12:54.919Z,10.75
2022-11-22T00:15:21.795Z,10.18
2022-11-22T00:17:48.719Z,10.93
2022-11-22T00:20:15.861Z,10.15
2022-11-22T00:22:44.750Z,10.25
2022-11-22T00:25:12.602Z,9.38
2022-11-22T00:27:39.885Z,9.88
2022-11-22T00:30:07.847Z,9.85
2022-11-22T00:32:34.815Z,9.95
2022-11-22T00:35:01.693Z,10.25
2022-11-22T00:37:28.599Z,9.65
2022-11-22T00:39:55.465Z,10.40
2022-11-22T00:42:22.369Z,10.00
2022-11-22T00:44:49.248Z,9.05
2022-11-22T00:47:16.157Z,9.35
2022-11-22T00:49:43.197Z,10.27
2022-11-22T00:52:10.048Z,11.40
2022-11-22T00:54:36.935Z,9.10
2022-11-22T00:57:03.802Z,10.68
2022-11-22T00:59:30.959Z,10.23
2022-11-22T01:01:58.142Z,10.38
2022-11-22T01:04:25.019Z,9.88
2022-11-22T01:06:51.888Z,9.77
2022-11-22T01:09:21.906Z,10.13
2022-11-22T01:11:48.888Z,10.60
2022-11-22T01:14:16.609Z,10.20
2022-11-22T01:16:43.896Z,10.40
2022-11-22T01:19:11.268Z,9.90
2022-11-22T01:21:38.832Z,9.30
2022-11-22T01:24:06.061Z,10.77
2022-11-22T01:26:33.842Z,9.88
2022-11-22T01:29:00.756Z,11.10
2022-11-22T01:31:27.765Z,9.70
2022-11-22T01:33:54.644Z,9.70
2022-11-22T01:36:21.645Z,9.88
2022-11-22T01:38:48.503Z,9.82
2022-11-22T01:41:15.412Z,10.35
2022-11-22T01:43:42.301Z,9.73
2022-11-22T01:46:39.532Z,10.77
2022-11-22T01:49:30.723Z,10.07
2022-11-22T01:52:07.505Z,9.45
2022-11-22T01:54:38.494Z,9.80
2022-11-22T01:57:10.829Z,9.55
2022-11-22T01:59:42.148Z,9.68
2022-11-22T02:02:09.049Z,10.18
2022-11-22T02:04:37.595Z,9.85
2022-11-22T02:07:11.057Z,10.50
2022-11-22T02:09:40.794Z,11.27
2022-11-22T02:12:09.958Z,9.90
2022-11-22T02:14:38.495Z,9.18
2022-11-22T02:17:05.390Z,9.93
2022-11-22T02:19:46.418Z,10.10
2022-11-22T02:22:20.056Z,9.07
2022-11-22T02:25:19.786Z,10.05
2022-11-22T02:27:47.051Z,9.65
2022-11-22T02:30:13.997Z,10.00
2022-11-22T02:32:40.871Z,8.43
2022-11-22T02:35:20.057Z,8.77
2022-11-22T02:37:51.471Z,8.45
2022-11-22T02:40:20.170Z,8.77
2022-11-22T02:42:56.321Z,8.70
2022-11-22T02:45:23.187Z,8.63
2022-11-22T02:47:50.077Z,9.45
2022-11-22T02:50:17.076Z,8.82
2022-11-22T02:52:43.973Z,8.40
2022-11-22T02:55:10.904Z,8.27
2022-11-22T02:57:37.770Z,8.45
2022-11-22T03:00:05.261Z,8.50
2022-11-22T03:02:32.126Z,7.70
2022-11-22T03:04:58.945Z,7.88
2022-11-22T03:07:25.841Z,9.35
2022-11-22T03:09:52.792Z,8.35
2022-11-22T03:12:19.710Z,8.35
2022-11-22T03:14:46.645Z,7.30
2022-11-22T03:17:16.186Z,7.97
2022-11-22T03:19:43.019Z,7.70
2022-11-22T03:22:11.457Z,7.95
2022-11-22T03:24:38.604Z,8.32
2022-11-22T03:27:05.611Z,7.28
2022-11-22T03:29:35.208Z,7.20
2022-11-22T03:32:02.194Z,7.07
2022-11-22T03:34:29.205Z,6.70
2022-11-22T03:36:56.138Z,6.95
2022-11-22T03:39:23.025Z,7.18
2022-11-22T03:41:51.162Z,7.30
2022-11-22T03:44:18.037Z,6.75
2022-11-22T03:46:45.101Z,6.90
2022-11-22T03:49:12.254Z,7.70
2022-11-22T03:51:39.346Z,7.65
2022-11-22T03:54:06.227Z,8.50
2022-11-22T03:56:33.193Z,8.02
2022-11-22T03:59:00.173Z,7.75
2022-11-22T04:01:27.129Z,7.85
2022-11-22T04:03:54.059Z,7.43
2022-11-22T04:06:21.024Z,7.43
2022-11-22T04:08:48.004Z,8.93
2022-11-22T04:11:14.927Z,8.18
2022-11-22T04:14:00.362Z,7.65
2022-11-22T04:16:27.256Z,8.38
2022-11-22T04:18:56.472Z,7.03
2022-11-22T04:21:35.467Z,7.95
2022-11-22T04:24:28.994Z,8.00
2022-11-22T04:26:56.744Z,7.53
2022-11-22T04:29:24.367Z,7.60
2022-11-22T04:32:10.635Z,6.90
2022-11-22T04:34:37.906Z,6.70
2022-11-22T04:37:06.062Z,7.65
2022-11-22T04:39:33.456Z,7.00
2022-11-22T04:42:18.976Z,7.22
2022-11-22T04:44:46.303Z,7.72
2022-11-22T04:47:38.933Z,6.63
2022-11-22T04:50:28.115Z,7.03
2022-11-22T04:52:57.814Z,6.97
2022-11-22T04:55:24.918Z,6.95
2022-11-22T04:57:56.082Z,7.40
2022-11-22T05:00:27.621Z,7.47
2022-11-22T05:02:54.615Z,7.45
2022-11-22T05:05:21.618Z,6.30
2022-11-22T05:07:48.642Z,6.97
2022-11-22T05:10:16.694Z,6.90
2022-11-22T05:12:45.155Z,7.70
2022-11-22T05:15:12.407Z,6.75
2022-11-22T05:17:39.750Z,7.40
2022-11-22T05:20:08.204Z,6.78
2022-11-22T05:22:54.513Z,7.22
2022-11-22T05:25:25.514Z,8.02
2022-11-22T05:28:00.421Z,6.97
2022-11-22T05:30:29.432Z,7.80
2022-11-22T05:32:56.509Z,7.40
2022-11-22T05:35:23.623Z,7.05
2022-11-22T05:37:50.576Z,7.10
2022-11-22T05:40:17.568Z,7.53
2022-11-22T05:42:44.526Z,7.20
2022-11-22T05:45:11.545Z,7.65
2022-11-22T05:47:38.679Z,7.82
2022-11-22T05:50:06.091Z,6.90
2022-11-22T05:52:33.150Z,7.30
2022-11-22T05:55:00.070Z,6.72
2022-11-22T05:57:27.792Z,6.80
2022-11-22T05:59:55.074Z,6.38
2022-11-22T06:02:22.110Z,7.63
2022-11-22T06:04:49.190Z,6.72
2022-11-22T06:07:16.249Z,6.07
2022-11-22T06:09:43.200Z,7.32
2022-11-22T06:12:10.151Z,7.22
2022-11-22T06:14:42.999Z,6.75
2022-11-22T06:17:10.606Z,6.80
2022-11-22T06:19:37.619Z,6.25
2022-11-22T06:22:04.526Z,8.25
2022-11-22T06:24:31.405Z,7.38
2022-11-22T06:26:58.277Z,6.95
2022-11-22T06:29:25.262Z,7.20
2022-11-22T06:31:52.177Z,6.70
2022-11-22T06:34:19.101Z,7.18
2022-11-22T06:36:46.669Z,5.50
2022-11-22T06:39:13.743Z,6.00
2022-11-22T06:41:40.925Z,6.28
2022-11-22T06:44:09.688Z,6.03
2022-11-22T06:46:37.322Z,6.03
2022-11-22T06:49:04.915Z,5.47
2022-11-22T06:51:34.338Z,6.35
2022-11-22T06:54:01.364Z,5.93
2022-11-22T06:56:39.245Z,6.20
2022-11-22T06:59:07.821Z,5.03
2022-11-22T07:01:36.223Z,5.45
2022-11-22T07:04:04.720Z,5.50
2022-11-22T07:06:37.395Z,7.40
2022-11-22T07:09:06.961Z,7.50
2022-11-22T07:11:34.964Z,7.32
2022-11-22T07:14:08.357Z,6.65
2022-11-22T07:16:37.692Z,6.45
2022-11-22T07:19:05.801Z,5.53
2022-11-22T07:21:32.997Z,6.95
2022-11-22T07:24:00.346Z,6.15
2022-11-22T07:26:28.915Z,6.00
2022-11-22T07:29:01.886Z,5.50
2022-11-22T07:31:32.453Z,5.95
2022-11-22T07:33:59.665Z,6.32
2022-11-22T07:36:29.762Z,5.70
2022-11-22T07:38:57.154Z,5.15
2022-11-22T07:41:24.378Z,5.60
2022-11-22T07:43:53.207Z,6.88
2022-11-22T07:46:26.367Z,6.32
2022-11-22T07:48:56.209Z,6.95
2022-11-22T07:51:23.148Z,5.85
2022-11-22T07:53:50.665Z,5.97
2022-11-22T07:56:18.240Z,5.13
2022-11-22T07:58:48.520Z,5.90
2022-11-22T08:03:54.499Z,4.95
2022-11-22T08:06:21.414Z,5.03
2022-11-22T08:08:50.923Z,5.45
2022-11-22T08:11:17.959Z,5.40
2022-11-22T08:13:45.213Z,5.68
2022-11-22T08:16:16.150Z,6.07
2022-11-22T08:18:47.774Z,5.35
2022-11-22T08:21:15.044Z,5.38
2022-11-22T08:23:43.266Z,4.57
2022-11-22T08:26:13.204Z,4.97
2022-11-22T08:28:44.419Z,5.45
2022-11-22T08:31:14.983Z,5.63
2022-11-22T08:33:48.873Z,5.45
2022-11-22T08:36:18.352Z,5.55
2022-11-22T08:38:47.149Z,5.07
2022-11-22T08:41:18.207Z,5.10
2022-11-22T08:43:45.453Z,5.43
2022-11-22T08:46:13.016Z,5.68
2022-11-22T08:48:48.457Z,4.90
2022-11-22T08:51:23.462Z,4.90
2022-11-22T08:54:37.339Z,4.70
2022-11-22T09:00:37.951Z,5.75
2022-11-22T09:09:39.984Z,5.35
2022-11-22T09:12:27.748Z,4.93
2022-11-22T09:15:03.364Z,4.70
2022-11-22T09:17:34.460Z,4.82
2022-11-22T09:20:09.825Z,5.55
2022-11-22T09:22:40.596Z,5.30
2022-11-22T09:25:14.715Z,4.63
2022-11-22T09:27:49.857Z,4.45
2022-11-22T09:30:31.752Z,4.57
2022-11-22T09:33:10.531Z,5.40
2022-11-22T09:35:40.685Z,3.80
2022-11-22T09:38:20.961Z,4.10
2022-11-22T09:40:55.460Z,4.60
2022-11-22T09:43:57.554Z,4.13
2022-11-22T09:46:38.481Z,5.22
2022-11-22T09:49:35.332Z,5.85
2022-11-22T09:52:27.240Z,5.97
2022-11-22T09:55:03.584Z,8.13
2022-11-22T09:57:51.844Z,7.53
2022-11-22T10:00:37.404Z,7.07
2022-11-22T10:03:22.058Z,5.22
2022-11-22T10:06:12.620Z,4.65
2022-11-22T10:09:29.678Z,4.45
2022-11-22T10:13:11.345Z,4.30
2022-11-22T10:16:18.248Z,4.53
2022-11-22T10:19:24.467Z,5.55
2022-11-22T10:21:51.590Z,4.93
2022-11-22T10:27:28.596Z,5.38
2022-11-22T10:34:13.009Z,4.80
2022-11-22T10:37:46.154Z,4.95
2022-11-22T10:43:38.342Z,4.18
2022-11-22T10:46:10.929Z,4.10
2022-11-22T10:48:51.193Z,3.72
2022-11-22T10:51:44.697Z,4.90
2022-11-22T10:54:24.900Z,3.97
2022-11-22T10:56:51.877Z,5.45
2022-11-22T10:59:43.032Z,3.63
2022-11-22T11:02:09.906Z,3.55
2022-11-22T11:04:40.883Z,3.47
2022-11-22T11:07:15.603Z,3.65
2022-11-22T11:12:56.830Z,3.30
2022-11-22T11:15:30.628Z,4.10
2022-11-22T11:18:01.925Z,3.50
2022-11-22T11:20:37.627Z,4.93
2022-11-22T11:23:20.199Z,3.80
2022-11-22T11:25:48.783Z,4.05
2022-11-22T11:28:27.652Z,4.15
2022-11-22T11:31:01.327Z,4.47
2022-11-22T11:33:31.281Z,3.40
2022-11-22T11:36:23.434Z,4.35
2022-11-22T11:38:56.146Z,4.47
2022-11-22T11:41:31.694Z,4.25
2022-11-22T11:44:04.735Z,5.20
2022-11-22T11:46:40.649Z,4.43
2022-11-22T11:49:17.534Z,4.43
2022-11-22T11:51:45.601Z,4.20
2022-11-22T11:54:28.178Z,4.18
2022-11-22T11:56:59.866Z,5.28
2022-11-22T11:59:40.807Z,3.92
2022-11-22T12:02:28.154Z,3.88
2022-11-22T12:05:05.284Z,4.10
2022-11-22T12:07:44.709Z,4.75
2022-11-22T12:10:30.576Z,3.75
2022-11-22T12:13:04.885Z,3.35
2022-11-22T12:15:47.242Z,2.90
2022-11-22T12:18:38.875Z,3.03
2022-11-22T12:21:39.140Z,2.85
2022-11-22T12:24:48.411Z,2.80
2022-11-22T12:27:15.003Z,2.90
2022-11-22T12:29:44.591Z,3.08
2022-11-22T12:32:27.583Z,3.03
2022-11-22T12:35:03.476Z,3.35
2022-11-22T12:37:39.176Z,3.15
2022-11-22T12:40:16.676Z,2.88
2022-11-22T12:42:56.050Z,3.30
2022-11-22T12:45:36.424Z,2.03
2022-11-22T12:48:26.306Z,2.75
2022-11-22T12:50:56.109Z,2.47
2022-11-22T12:53:36.452Z,3.07
2022-11-22T12:59:15.615Z,2.53
2022-11-22T13:01:42.531Z,2.65
2022-11-22T13:04:09.391Z,2.38
2022-11-22T13:06:57.016Z,2.80
2022-11-22T13:09:29.630Z,2.38
2022-11-22T13:12:02.910Z,2.60
2022-11-22T13:14:50.016Z,2.78
2022-11-22T13:17:18.154Z,2.80
2022-11-22T13:19:55.640Z,2.20
2022-11-22T13:22:49.866Z,2.15
2022-11-22T13:25:35.518Z,2.45
2022-11-22T13:28:25.510Z,2.17
2022-11-22T13:31:12.947Z,2.58
2022-11-22T13:33:55.024Z,2.22
2022-11-22T13:36:27.824Z,2.08
2022-11-22T13:38:57.335Z,1.83
2022-11-22T13:41:46.122Z,2.90
2022-11-22T13:44:26.951Z,2.05
2022-11-22T13:47:00.506Z,2.08
2022-11-22T13:49:38.291Z,2.42
2022-11-22T13:52:12.789Z,2.70
2022-11-22T13:55:01.567Z,1.83
2022-11-22T13:57:40.198Z,2.75
2022-11-22T14:00:14.159Z,2.38
2022-11-22T14:02:47.041Z,2.30
2022-11-22T14:05:41.037Z,1.95
2022-11-22T14:08:28.592Z,2.30
2022-11-22T14:10:55.684Z,2.80
2022-11-22T14:13:35.028Z,1.75
2022-11-22T14:16:04.832Z,1.85
2022-11-22T14:18:55.825Z,2.28
2022-11-22T14:21:46.455Z,1.85
2022-11-22T14:24:28.874Z,2.40
2022-11-22T14:27:23.725Z,2.42
2022-11-22T14:30:15.147Z,2.33
2022-11-22T14:32:54.328Z,1.50
2022-11-22T14:35:29.457Z,2.08
2022-11-22T14:38:05.607Z,2.15
2022-11-22T14:40:40.504Z,2.40
2022-11-22T14:43:17.070Z,2.05
2022-11-22T14:45:52.651Z,1.98
2022-11-22T14:48:26.076Z,2.20
2022-11-22T14:51:07.083Z,1.98
2022-11-22T14:53:34.639Z,2.50
2022-11-22T14:56:18.152Z,1.92
2022-11-22T14:59:00.685Z,2.00
2022-11-22T15:01:46.445Z,1.70
2022-11-22T15:09:16.277Z,1.65
2022-11-22T15:09:20.359Z,2.05
2022-11-22T15:11:03.813Z,1.90
2022-11-22T15:13:45.834Z,2.10
2022-11-22T15:59:43.215Z,3.08
2022-11-22T16:02:26.125Z,2.40
2022-11-22T16:06:05.401Z,2.28
2022-11-22T16:07:49.734Z,1.92
2022-11-22T16:10:19.952Z,1.52
2022-11-22T16:12:47.065Z,2.70
2022-11-22T16:15:38.087Z,2.20
2022-11-22T16:18:26.070Z,2.00
2022-11-22T16:21:12.398Z,2.88
2022-11-22T16:23:40.977Z,3.25
2022-11-22T16:26:24.716Z,2.35
2022-11-22T16:28:56.107Z,2.15
2022-11-22T16:31:27.527Z,2.50
2022-11-22T16:33:56.182Z,3.10
2022-11-22T16:36:25.066Z,3.15
2022-11-22T16:38:51.939Z,2.05
2022-11-22T16:41:21.732Z,2.33
2022-11-22T16:44:12.935Z,2.30
2022-11-22T16:46:40.779Z,2.90
2022-11-22T16:49:22.423Z,2.00
2022-11-22T16:51:50.735Z,2.97
2022-11-22T16:54:19.721Z,2.60
2022-11-22T16:56:47.708Z,2.45
2022-11-22T16:59:14.620Z,2.30
2022-11-22T17:01:44.900Z,2.55
2022-11-22T17:06:45.980Z,2.00
2022-11-22T17:09:13.184Z,2.78
2022-11-22T17:11:41.127Z,2.30
2022-11-22T17:14:14.626Z,2.38
2022-11-22T17:16:42.562Z,3.67
2022-11-22T17:19:19.103Z,2.50
2022-11-22T17:21:57.224Z,2.70
2022-11-22T17:24:24.290Z,3.70
2022-11-22T17:26:51.469Z,2.65
2022-11-22T17:29:43.381Z,2.35
2022-11-22T17:32:05.733Z,3.05
2022-11-22T17:34:33.242Z,2.10
2022-11-22T17:37:00.410Z,2.30
2022-11-22T17:39:27.435Z,2.28
2022-11-22T17:41:54.297Z,2.38
2022-11-22T17:44:21.897Z,1.98
2022-11-22T17:46:48.782Z,2.17
2022-11-22T17:49:16.594Z,2.00
2022-11-22T17:51:47.042Z,1.90
2022-11-22T17:54:14.068Z,1.92
2022-11-22T17:56:41.142Z,3.17
2022-11-22T17:59:08.070Z,1.85
2022-11-22T18:01:36.975Z,2.42
2022-11-22T18:04:04.110Z,2.53
2022-11-22T18:06:31.465Z,1.70
2022-11-22T18:08:58.916Z,3.10
2022-11-22T18:11:25.865Z,2.65
2022-11-22T18:13:52.795Z,3.70
2022-11-22T18:16:19.810Z,3.45
2022-11-22T18:19:02.586Z,1.80
2022-11-22T18:21:31.019Z,2.13
2022-11-22T18:23:59.094Z,2.47
2022-11-22T18:26:42.507Z,1.70
2022-11-22T18:29:41.745Z,2.25
2022-11-22T18:32:00.413Z,3.38
2022-11-22T18:34:28.182Z,2.70
2022-11-22T18:37:01.499Z,3.97
2022-11-22T18:39:32.002Z,3.08
2022-11-22T18:41:59.249Z,2.40
2022-11-22T18:44:26.205Z,2.72
2022-11-22T18:46:53.167Z,2.35
2022-11-22T18:49:20.024Z,2.60
2022-11-22T18:51:46.952Z,2.22
2022-11-22T18:54:14.465Z,3.58
2022-11-22T18:56:41.365Z,1.73
2022-11-22T18:59:12.507Z,2.10
2022-11-22T19:01:40.054Z,2.08
2022-11-22T19:04:07.456Z,2.40
2022-11-22T19:06:34.574Z,3.17
2022-11-22T19:09:02.422Z,2.10
2022-11-22T19:11:32.162Z,2.10
2022-11-22T19:13:59.443Z,2.28
2022-11-22T19:16:30.430Z,2.17
2022-11-22T19:18:58.683Z,2.45
2022-11-22T19:21:28.130Z,2.67
2022-11-22T19:23:56.403Z,3.08
2022-11-22T19:26:26.090Z,3.92
2022-11-22T19:28:57.860Z,3.65
2022-11-22T19:31:29.259Z,3.20
2022-11-22T19:33:56.730Z,2.53
2022-11-22T19:36:32.856Z,2.83
2022-11-22T19:39:01.332Z,1.67
2022-11-22T19:41:28.363Z,2.70
2022-11-22T19:43:56.731Z,2.03
2022-11-22T19:46:24.856Z,2.42
2022-11-22T19:48:53.344Z,1.90
2022-11-22T19:51:20.802Z,2.15
2022-11-22T19:53:47.925Z,1.92
2022-11-22T19:56:18.954Z,2.33
2022-11-22T19:58:54.150Z,2.30
2022-11-22T20:01:23.107Z,1.92
2022-11-22T20:03:55.091Z,2.00
2022-11-22T20:06:22.386Z,2.22
2022-11-22T20:08:49.870Z,4.57
2022-11-22T20:11:19.427Z,3.95
2022-11-22T20:13:52.527Z,2.58
2022-11-22T20:16:25.685Z,2.72
2022-11-22T20:18:57.390Z,2.25
2022-11-22T20:21:33.665Z,2.33
2022-11-22T20:27:02.555Z,2.05
2022-11-22T20:29:29.835Z,2.17
2022-11-22T20:31:58.992Z,1.88
2022-11-22T20:34:29.294Z,1.63
2022-11-22T20:36:56.838Z,1.48
2022-11-22T20:39:24.153Z,2.42
2022-11-22T20:42:11.846Z,3.22
2022-11-22T20:44:38.904Z,2.92
2022-11-22T20:47:06.329Z,1.42
2022-11-22T20:49:33.395Z,2.70
2022-11-22T20:52:07.143Z,1.77
2022-11-22T20:54:34.475Z,2.28
2022-11-22T20:57:01.900Z,1.80
2022-11-22T20:59:36.626Z,2.20
2022-11-22T21:02:09.180Z,1.45
2022-11-22T21:04:37.109Z,1.70
2022-11-22T21:07:06.848Z,2.20
2022-11-22T21:09:34.338Z,1.50
2022-11-22T21:12:01.760Z,2.88
2022-11-22T21:14:29.432Z,1.65
2022-11-22T21:16:57.080Z,1.65
2022-11-22T21:19:25.062Z,1.83
2022-11-22T21:21:52.978Z,1.90
2022-11-22T21:24:20.325Z,1.67
2022-11-22T21:26:47.672Z,1.58
2022-11-22T21:29:16.749Z,1.83
2022-11-22T21:31:46.412Z,1.80
2022-11-22T21:34:13.824Z,1.47
2022-11-22T21:36:43.905Z,1.52
2022-11-22T21:39:11.470Z,1.75
2022-11-22T21:41:40.665Z,1.95
2022-11-22T21:44:09.540Z,1.95
2022-11-22T21:46:37.234Z,1.80
2022-11-22T21:49:05.604Z,2.10
2022-11-22T21:51:33.079Z,1.50
2022-11-22T21:54:01.481Z,1.75
2022-11-22T21:56:31.713Z,2.00
2022-11-22T22:01:26.580Z,1.90
2022-11-22T22:03:56.869Z,1.60
2022-11-22T22:06:26.547Z,1.30
2022-11-22T22:08:54.170Z,1.75
2022-11-22T22:11:21.678Z,1.70
2022-11-22T22:13:49.074Z,1.42
2022-11-22T22:16:19.016Z,1.65
2022-11-22T22:21:13.897Z,1.70
2022-11-22T22:23:42.197Z,1.48
2022-11-22T22:26:17.523Z,1.45
2022-11-22T22:28:47.805Z,1.23
2022-11-22T22:31:22.283Z,1.50
2022-11-22T22:33:59.540Z,1.65
2022-11-22T22:36:27.296Z,1.50
2022-11-22T22:38:55.241Z,1.83
2022-11-22T22:41:22.663Z,1.50
2022-11-22T22:43:50.074Z,2.42
2022-11-22T22:46:24.821Z,1.30
2022-11-22T22:48:54.849Z,1.65
2022-11-22T22:51:31.648Z,1.27
2022-11-22T22:54:02.446Z,1.60
2022-11-22T22:56:31.030Z,1.40
2022-11-22T22:59:01.020Z,1.70
2022-11-22T23:01:30.540Z,1.60
2022-11-22T23:04:00.001Z,1.52
2022-11-22T23:06:29.586Z,1.30
2022-11-22T23:08:57.266Z,1.02
2022-11-22T23:11:45.594Z,2.13
2022-11-22T23:14:14.431Z,1.13
2022-11-22T23:16:41.735Z,1.63
2022-11-22T23:19:09.214Z,1.15
2022-11-22T23:21:36.495Z,1.30
2022-11-22T23:24:04.082Z,1.15
2022-11-22T23:26:31.463Z,1.52
2022-11-22T23:28:59.135Z,1.42
2022-11-22T23:31:27.239Z,1.80
2022-11-22T23:33:54.724Z,1.35
2022-11-22T23:36:22.940Z,1.38
2022-11-22T23:38:52.986Z,1.38
2022-11-22T23:41:22.654Z,1.52
2022-11-22T23:43:54.760Z,1.48
2022-11-22T23:46:24.853Z,1.65
2022-11-22T23:48:57.435Z,1.55
2022-11-22T23:51:25.400Z,1.73
2022-11-22T23:54:00.795Z,1.35
2022-11-22T23:56:28.871Z,1.75
2022-11-22T23:58:56.246Z,1.38
